createdAt,value
2018-08-20T00:01:31.625Z,93.90
2018-08-20T00:04:05.076Z,94.00
2018-08-20T00:06:45.601Z,94.10
2018-08-20T00:09:13.981Z,94.50
2018-08-20T00:11:42.477Z,95.00
2018-08-20T00:14:10.899Z,95.40
2018-08-20T00:16:39.310Z,95.60
2018-08-20T00:19:11.948Z,96.00
2018-08-20T00:21:40.393Z,96.50
2018-08-20T00:24:08.743Z,96.70
2018-08-20T00:26:37.147Z,96.90
2018-08-20T00:29:06.054Z,96.90
2018-08-20T00:31:34.759Z,96.80
2018-08-20T00:34:03.114Z,97.00
2018-08-20T00:36:31.458Z,97.00
2018-08-20T00:38:59.759Z,97.40
2018-08-20T00:41:28.111Z,97.60
2018-08-20T00:43:56.396Z,97.70
2018-08-20T00:46:24.777Z,97.80
2018-08-20T00:48:53.261Z,98.10
2018-08-20T00:51:21.581Z,98.10
2018-08-20T00:53:49.879Z,98.30
2018-08-20T00:56:18.216Z,98.40
2018-08-20T00:58:46.614Z,98.50
2018-08-20T01:01:14.998Z,98.70
2018-08-20T01:03:43.406Z,99.00
2018-08-20T01:06:11.731Z,99.40
2018-08-20T01:08:40.142Z,99.40
2018-08-20T01:11:08.597Z,99.50
2018-08-20T01:13:36.993Z,99.30
2018-08-20T01:16:05.337Z,99.50
2018-08-20T01:18:33.743Z,99.60
2018-08-20T01:21:02.125Z,99.80
2018-08-20T01:23:30.505Z,99.90
2018-08-20T01:25:58.843Z,99.90
2018-08-20T01:28:27.191Z,99.90
2018-08-20T01:30:55.509Z,99.90
2018-08-20T01:33:23.866Z,99.90
2018-08-20T01:35:52.224Z,99.90
2018-08-20T01:38:20.514Z,99.90
2018-08-20T01:40:49.125Z,99.90
2018-08-20T01:43:17.439Z,99.90
2018-08-20T01:45:45.830Z,99.90
2018-08-20T01:48:14.341Z,99.90
2018-08-20T01:50:42.978Z,99.90
2018-08-20T01:53:11.286Z,99.90
2018-08-20T01:55:39.615Z,99.90
2018-08-20T01:58:07.965Z,99.90
2018-08-20T02:00:36.332Z,99.90
2018-08-20T02:03:04.915Z,99.90
2018-08-20T02:05:33.313Z,99.90
2018-08-20T02:08:01.923Z,99.90
2018-08-20T02:10:30.564Z,99.90
2018-08-20T02:12:58.910Z,99.90
2018-08-20T02:15:27.235Z,99.90
2018-08-20T02:17:55.850Z,99.90
2018-08-20T02:20:24.237Z,99.90
2018-08-20T02:22:52.610Z,99.90
2018-08-20T02:25:20.953Z,99.90
2018-08-20T02:27:49.289Z,99.90
2018-08-20T02:30:17.585Z,99.90
2018-08-20T02:32:45.910Z,99.90
2018-08-20T02:35:14.224Z,99.90
2018-08-20T02:37:45.347Z,99.90
2018-08-20T02:40:14.749Z,99.90
2018-08-20T02:42:43.106Z,99.90
2018-08-20T02:45:14.820Z,99.90
2018-08-20T02:47:43.829Z,99.90
2018-08-20T02:50:12.946Z,99.90
2018-08-20T02:52:42.243Z,99.90
2018-08-20T02:55:10.651Z,99.90
2018-08-20T02:57:39.234Z,99.90
2018-08-20T03:00:09.573Z,99.90
2018-08-20T03:02:37.934Z,99.90
2018-08-20T03:05:06.749Z,99.90
2018-08-20T03:07:35.075Z,99.90
2018-08-20T03:10:03.545Z,99.90
2018-08-20T03:12:31.884Z,99.90
2018-08-20T03:15:00.560Z,99.90
2018-08-20T03:17:28.917Z,99.90
2018-08-20T03:19:57.359Z,99.90
2018-08-20T03:22:25.686Z,99.90
2018-08-20T03:24:54.122Z,99.90
2018-08-20T03:27:22.497Z,99.90
2018-08-20T03:29:50.859Z,99.90
2018-08-20T03:32:19.206Z,99.90
2018-08-20T03:34:47.543Z,99.90
2018-08-20T03:37:15.911Z,99.90
2018-08-20T03:39:44.394Z,99.90
2018-08-20T03:42:12.757Z,99.90
2018-08-20T03:44:41.123Z,99.90
2018-08-20T03:47:09.538Z,99.90
2018-08-20T03:49:38.703Z,99.90
2018-08-20T03:52:07.071Z,99.90
2018-08-20T03:54:35.405Z,99.90
2018-08-20T03:57:03.852Z,99.90
2018-08-20T03:59:36.615Z,99.90
2018-08-20T04:02:06.077Z,99.90
2018-08-20T04:04:34.456Z,99.90
2018-08-20T04:07:04.146Z,99.90
2018-08-20T04:09:32.887Z,99.90
2018-08-20T04:12:02.291Z,99.90
2018-08-20T04:14:30.666Z,99.90
2018-08-20T04:16:59.602Z,99.90
2018-08-20T04:19:28.514Z,99.90
2018-08-20T04:21:56.930Z,99.90
2018-08-20T04:24:25.351Z,99.90
2018-08-20T04:26:53.802Z,99.90
2018-08-20T04:29:22.418Z,99.90
2018-08-20T04:31:50.750Z,99.90
2018-08-20T04:34:19.078Z,99.90
2018-08-20T04:36:47.447Z,99.90
2018-08-20T04:39:15.806Z,99.90
2018-08-20T04:41:44.121Z,99.90
2018-08-20T04:44:12.473Z,99.90
2018-08-20T04:46:40.803Z,99.90
2018-08-20T04:49:09.138Z,99.90
2018-08-20T04:51:37.483Z,99.90
2018-08-20T04:54:05.919Z,99.90
2018-08-20T04:56:34.238Z,99.90
2018-08-20T04:59:02.612Z,99.90
2018-08-20T05:01:30.955Z,99.90
2018-08-20T05:03:59.475Z,99.90
2018-08-20T05:06:27.761Z,99.90
2018-08-20T05:08:56.240Z,99.90
2018-08-20T05:11:24.588Z,99.90
2018-08-20T05:13:52.920Z,99.90
2018-08-20T05:16:21.419Z,99.90
2018-08-20T05:18:49.742Z,99.90
2018-08-20T05:21:18.101Z,99.90
2018-08-20T05:23:46.454Z,99.90
2018-08-20T05:26:14.807Z,99.90
2018-08-20T05:28:43.143Z,99.90
2018-08-20T05:31:11.488Z,99.90
2018-08-20T05:33:39.871Z,99.90
2018-08-20T05:36:08.349Z,99.90
2018-08-20T05:38:36.718Z,99.90
2018-08-20T05:41:05.069Z,99.90
2018-08-20T05:43:33.470Z,99.00
2018-08-20T05:46:01.919Z,98.30
2018-08-20T05:48:30.297Z,97.40
2018-08-20T05:50:58.701Z,96.30
2018-08-20T05:53:27.068Z,95.70
2018-08-20T05:55:55.376Z,95.70
2018-08-20T05:58:23.819Z,95.30
2018-08-20T06:00:52.229Z,95.00
2018-08-20T06:03:20.815Z,94.50
2018-08-20T06:05:49.149Z,94.80
2018-08-20T06:08:17.520Z,94.90
2018-08-20T06:10:45.894Z,94.80
2018-08-20T06:13:14.333Z,94.20
2018-08-20T06:15:42.726Z,93.60
2018-08-20T06:18:11.466Z,93.00
2018-08-20T06:20:39.957Z,92.60
2018-08-20T06:23:08.362Z,92.10
2018-08-20T06:25:36.699Z,91.90
2018-08-20T06:28:05.078Z,92.00
2018-08-20T06:30:33.437Z,92.00
2018-08-20T06:33:01.814Z,93.20
2018-08-20T06:35:30.143Z,94.80
2018-08-20T06:37:58.599Z,95.80
2018-08-20T06:40:26.957Z,97.00
2018-08-20T06:42:55.282Z,98.10
2018-08-20T06:45:23.771Z,98.60
2018-08-20T06:47:52.171Z,98.50
2018-08-20T06:50:20.578Z,98.40
2018-08-20T06:52:48.922Z,97.80
2018-08-20T06:55:17.326Z,97.00
2018-08-20T06:57:46.577Z,96.60
2018-08-20T07:00:15.289Z,96.70
2018-08-20T07:02:43.682Z,96.90
2018-08-20T07:05:12.254Z,97.20
2018-08-20T07:07:41.096Z,96.40
2018-08-20T07:10:12.338Z,95.90
2018-08-20T07:12:40.865Z,95.60
2018-08-20T07:15:11.337Z,95.70
2018-08-20T07:17:39.771Z,95.50
2018-08-20T07:20:09.967Z,95.80
2018-08-20T07:22:38.382Z,96.40
2018-08-20T07:25:07.943Z,96.00
2018-08-20T07:27:37.256Z,96.90
2018-08-20T07:30:07.973Z,97.20
2018-08-20T07:32:36.418Z,97.60
2018-08-20T07:35:05.819Z,98.40
2018-08-20T07:37:34.220Z,98.50
2018-08-20T07:40:02.667Z,98.90
2018-08-20T07:42:31.172Z,98.10
2018-08-20T07:44:59.638Z,97.30
2018-08-20T07:47:28.234Z,96.80
2018-08-20T07:49:56.698Z,96.20
2018-08-20T07:52:25.122Z,95.60
2018-08-20T07:54:53.571Z,95.90
2018-08-20T07:57:21.995Z,95.80
2018-08-20T07:59:50.348Z,95.70
2018-08-20T08:02:18.754Z,95.70
2018-08-20T08:04:47.109Z,96.30
2018-08-20T08:07:15.606Z,97.00
2018-08-20T08:09:44.050Z,97.00
2018-08-20T08:12:12.440Z,97.20
2018-08-20T08:14:40.842Z,96.40
2018-08-20T08:17:09.279Z,96.40
2018-08-20T08:19:37.752Z,96.30
2018-08-20T08:22:06.143Z,96.40
2018-08-20T08:24:34.579Z,97.00
2018-08-20T08:27:03.089Z,97.10
2018-08-20T08:29:31.592Z,97.30
2018-08-20T08:32:00.021Z,97.50
2018-08-20T08:34:28.437Z,97.50
2018-08-20T08:36:56.924Z,98.20
2018-08-20T08:39:25.347Z,98.90
2018-08-20T08:41:53.738Z,99.40
2018-08-20T08:44:22.123Z,99.80
2018-08-20T08:46:50.565Z,99.90
2018-08-20T08:49:19.029Z,99.90
2018-08-20T08:51:47.811Z,99.90
2018-08-20T08:54:16.239Z,99.90
2018-08-20T08:56:44.811Z,99.90
2018-08-20T08:59:13.832Z,99.90
2018-08-20T09:01:42.344Z,99.90
2018-08-20T09:04:10.916Z,99.90
2018-08-20T09:06:39.373Z,99.90
2018-08-20T09:09:08.112Z,99.90
2018-08-20T09:11:36.639Z,99.90
2018-08-20T09:14:05.111Z,99.90
2018-08-20T09:16:33.514Z,99.90
2018-08-20T09:19:01.889Z,99.70
2018-08-20T09:21:30.285Z,98.10
2018-08-20T09:23:58.718Z,96.40
2018-08-20T09:26:27.145Z,94.30
2018-08-20T09:28:55.517Z,94.20
2018-08-20T09:31:23.946Z,94.30
2018-08-20T09:33:52.652Z,94.80
2018-08-20T09:36:21.773Z,94.00
2018-08-20T09:38:50.686Z,93.40
2018-08-20T09:41:19.149Z,92.60
2018-08-20T09:43:47.578Z,91.20
2018-08-20T09:46:15.959Z,91.20
2018-08-20T09:48:44.348Z,90.40
2018-08-20T09:51:12.818Z,91.60
2018-08-20T09:53:41.204Z,91.60
2018-08-20T09:56:09.962Z,89.20
2018-08-20T09:58:38.372Z,83.70
2018-08-20T10:01:06.803Z,78.70
2018-08-20T10:03:35.336Z,81.00
2018-08-20T10:06:03.718Z,83.00
2018-08-20T10:08:32.312Z,80.80
2018-08-20T10:11:00.720Z,78.70
2018-08-20T10:13:29.064Z,73.50
2018-08-20T10:15:57.457Z,70.80
2018-08-20T10:18:25.891Z,70.80
2018-08-20T10:20:54.240Z,72.50
2018-08-20T10:23:22.651Z,72.70
2018-08-20T10:25:51.205Z,77.30
2018-08-20T10:28:19.632Z,77.00
2018-08-20T10:30:48.035Z,75.20
2018-08-20T10:33:16.471Z,74.70
2018-08-20T10:35:44.843Z,74.40
2018-08-20T10:38:13.298Z,72.70
2018-08-20T10:40:41.693Z,72.60
2018-08-20T10:43:10.059Z,71.70
2018-08-20T10:45:43.896Z,70.60
2018-08-20T10:48:12.286Z,75.00
2018-08-20T10:50:40.682Z,78.30
2018-08-20T10:53:09.092Z,79.70
2018-08-20T10:55:37.512Z,82.70
2018-08-20T10:58:06.034Z,86.00
2018-08-20T11:00:34.468Z,83.30
2018-08-20T11:03:02.846Z,80.00
2018-08-20T11:05:31.234Z,78.80
2018-08-20T11:07:59.680Z,75.80
2018-08-20T11:10:28.109Z,71.80
2018-08-20T11:12:56.554Z,72.40
2018-08-20T11:15:24.914Z,74.90
2018-08-20T11:17:53.385Z,75.60
2018-08-20T11:20:21.738Z,71.80
2018-08-20T11:22:50.592Z,69.70
2018-08-20T11:25:19.064Z,67.90
2018-08-20T11:27:47.541Z,69.20
2018-08-20T11:30:15.964Z,70.90
2018-08-20T11:32:44.344Z,73.70
2018-08-20T11:35:12.997Z,74.00
2018-08-20T11:37:41.686Z,74.60
2018-08-20T11:40:10.078Z,75.60
2018-08-20T11:42:38.509Z,76.30
2018-08-20T11:45:09.090Z,77.60
2018-08-20T11:47:37.522Z,79.40
2018-08-20T11:50:06.103Z,80.40
2018-08-20T11:52:36.082Z,80.80
2018-08-20T11:55:04.714Z,81.80
2018-08-20T11:57:33.875Z,81.90
2018-08-20T12:00:02.343Z,81.70
2018-08-20T12:02:31.174Z,82.50
2018-08-20T12:04:59.571Z,83.30
2018-08-20T12:07:28.048Z,82.80
2018-08-20T12:09:56.381Z,80.90
2018-08-20T12:12:24.685Z,78.50
2018-08-20T12:14:53.087Z,75.60
2018-08-20T12:17:21.614Z,75.10
2018-08-20T12:19:50.381Z,71.70
2018-08-20T12:22:18.763Z,69.70
2018-08-20T12:24:47.106Z,70.70
2018-08-20T12:27:16.211Z,71.80
2018-08-20T12:29:44.569Z,73.10
2018-08-20T12:32:12.934Z,76.50
2018-08-20T12:34:41.527Z,78.40
2018-08-20T12:37:10.043Z,76.80
2018-08-20T12:39:38.451Z,75.90
2018-08-20T12:42:07.211Z,74.30
2018-08-20T12:44:36.182Z,71.80
2018-08-20T12:47:04.650Z,67.30
2018-08-20T12:49:33.000Z,66.00
2018-08-20T12:52:01.420Z,66.10
2018-08-20T12:54:29.718Z,66.60
2018-08-20T12:56:58.502Z,67.00
2018-08-20T12:59:27.397Z,68.90
2018-08-20T13:01:56.363Z,70.10
2018-08-20T13:04:24.669Z,71.20
2018-08-20T13:06:52.999Z,71.20
2018-08-20T13:09:21.512Z,71.60
2018-08-20T13:11:49.917Z,73.10
2018-08-20T13:14:18.345Z,74.00
2018-08-20T13:16:46.727Z,75.20
2018-08-20T13:19:15.085Z,76.10
2018-08-20T13:21:43.521Z,76.50
2018-08-20T13:24:11.963Z,77.20
2018-08-20T13:26:40.321Z,77.40
2018-08-20T13:29:08.662Z,77.30
2018-08-20T13:31:37.687Z,77.90
2018-08-20T13:34:06.764Z,77.40
2018-08-20T13:36:35.263Z,77.80
2018-08-20T13:39:04.748Z,78.50
2018-08-20T13:41:33.183Z,77.80
2018-08-20T13:44:02.308Z,78.10
2018-08-20T13:46:30.683Z,78.00
2018-08-20T13:48:59.089Z,78.60
2018-08-20T13:51:27.474Z,77.80
2018-08-20T13:53:55.798Z,78.50
2018-08-20T13:56:24.120Z,78.60
2018-08-20T13:58:52.458Z,78.10
2018-08-20T14:01:20.829Z,78.00
2018-08-20T14:03:49.165Z,77.00
2018-08-20T14:06:17.598Z,76.40
2018-08-20T14:08:46.547Z,75.10
2018-08-20T14:11:14.910Z,73.90
2018-08-20T14:13:43.259Z,73.40
2018-08-20T14:16:11.640Z,72.40
2018-08-20T14:18:39.977Z,72.70
2018-08-20T14:21:16.637Z,71.70
2018-08-20T14:23:47.367Z,70.00
2018-08-20T14:26:15.775Z,69.10
2018-08-20T14:28:44.220Z,67.80
2018-08-20T14:31:12.678Z,65.50
2018-08-20T14:33:41.116Z,66.70
2018-08-20T14:36:10.651Z,69.20
2018-08-20T14:38:39.632Z,70.50
2018-08-20T14:41:08.727Z,70.10
2018-08-20T14:43:37.163Z,69.80
2018-08-20T14:46:11.490Z,69.30
2018-08-20T14:48:39.885Z,68.60
2018-08-20T14:51:08.483Z,69.40
2018-08-20T14:53:36.847Z,69.60
2018-08-20T14:56:05.323Z,72.90
2018-08-20T14:58:33.833Z,73.40
2018-08-20T15:01:02.643Z,73.70
2018-08-20T15:03:31.049Z,73.10
2018-08-20T15:05:59.385Z,73.00
2018-08-20T15:08:27.752Z,73.00
2018-08-20T15:10:56.347Z,73.60
2018-08-20T15:13:24.727Z,74.90
2018-08-20T15:15:53.091Z,75.40
2018-08-20T15:18:21.457Z,75.20
2018-08-20T15:20:49.774Z,75.10
2018-08-20T15:23:18.729Z,75.10
2018-08-20T15:25:47.113Z,75.20
2018-08-20T15:28:15.499Z,74.60
2018-08-20T15:30:44.538Z,74.30
2018-08-20T15:33:13.541Z,74.30
2018-08-20T15:35:41.899Z,74.80
2018-08-20T15:38:10.320Z,75.30
2018-08-20T15:40:38.633Z,76.10
2018-08-20T15:43:07.014Z,77.20
2018-08-20T15:45:35.921Z,77.90
2018-08-20T15:48:04.314Z,78.40
2018-08-20T15:50:32.789Z,78.80
2018-08-20T15:53:01.700Z,78.70
2018-08-20T15:55:30.197Z,78.50
2018-08-20T15:57:58.552Z,78.70
2018-08-20T16:00:27.031Z,79.90
2018-08-20T16:02:55.352Z,80.50
2018-08-20T16:05:23.781Z,80.00
2018-08-20T16:07:52.238Z,80.20
2018-08-20T16:10:20.667Z,80.40
2018-08-20T16:12:49.206Z,80.70
2018-08-20T16:15:17.583Z,81.30
2018-08-20T16:17:45.905Z,81.90
2018-08-20T16:20:14.810Z,82.30
2018-08-20T16:22:43.199Z,82.60
2018-08-20T16:25:11.521Z,82.90
2018-08-20T16:27:39.889Z,83.10
2018-08-20T16:30:10.639Z,83.40
2018-08-20T16:32:39.495Z,84.00
2018-08-20T16:35:09.290Z,84.70
2018-08-20T16:37:37.672Z,84.80
2018-08-20T16:40:07.346Z,85.40
2018-08-20T16:42:35.817Z,85.50
2018-08-20T16:45:04.801Z,86.30
2018-08-20T16:47:33.173Z,86.30
2018-08-20T16:50:01.593Z,86.90
2018-08-20T16:52:30.011Z,86.50
2018-08-20T16:54:58.381Z,86.30
2018-08-20T16:57:26.772Z,86.20
2018-08-20T16:59:55.155Z,86.00
2018-08-20T17:02:28.088Z,86.20
2018-08-20T17:04:56.639Z,86.40
2018-08-20T17:07:24.990Z,87.80
2018-08-20T17:09:53.438Z,88.70
2018-08-20T17:12:21.907Z,89.40
2018-08-20T17:14:50.357Z,90.10
2018-08-20T17:17:18.685Z,90.30
2018-08-20T17:19:47.141Z,90.60
2018-08-20T17:22:15.673Z,90.70
2018-08-20T17:24:44.111Z,91.20
2018-08-20T17:27:12.702Z,91.40
2018-08-20T17:29:41.106Z,91.40
2018-08-20T17:32:10.065Z,91.40
2018-08-20T17:34:39.623Z,91.90
2018-08-20T17:37:08.058Z,92.30
2018-08-20T17:39:50.651Z,92.40
2018-08-20T17:42:19.054Z,92.60
2018-08-20T17:44:47.375Z,92.80
2018-08-20T17:47:20.027Z,92.90
2018-08-20T17:49:48.446Z,93.10
2018-08-20T17:52:16.884Z,93.30
2018-08-20T17:54:45.327Z,93.50
2018-08-20T17:57:13.790Z,93.70
2018-08-20T17:59:42.179Z,93.80
2018-08-20T18:02:18.796Z,94.10
2018-08-20T18:04:49.042Z,94.20
2018-08-20T18:07:17.425Z,94.50
2018-08-20T18:09:45.826Z,94.80
2018-08-20T18:12:14.244Z,95.50
2018-08-20T18:14:42.795Z,95.40
2018-08-20T18:17:11.295Z,95.60
2018-08-20T18:19:39.584Z,95.90
2018-08-20T18:22:08.043Z,96.20
2018-08-20T18:24:36.457Z,96.50
2018-08-20T18:27:04.874Z,96.80
2018-08-20T18:29:33.316Z,97.20
2018-08-20T18:32:02.950Z,97.40
2018-08-20T18:34:31.360Z,97.50
2018-08-20T18:37:02.501Z,97.80
2018-08-20T18:39:30.982Z,98.10
2018-08-20T18:42:03.557Z,98.60
2018-08-20T18:44:31.989Z,98.80
2018-08-20T18:47:00.749Z,99.10
2018-08-20T18:49:29.272Z,99.30
2018-08-20T18:52:04.258Z,99.70
2018-08-20T18:54:38.442Z,99.90
2018-08-20T18:57:07.233Z,99.90
2018-08-20T18:59:38.026Z,99.90
2018-08-20T19:02:07.804Z,99.90
2018-08-20T19:04:41.481Z,99.90
2018-08-20T19:07:11.173Z,99.90
2018-08-20T19:09:40.433Z,99.90
2018-08-20T19:12:09.254Z,99.90
2018-08-20T19:14:37.745Z,99.90
2018-08-20T19:17:14.192Z,99.90
2018-08-20T19:19:48.306Z,99.90
2018-08-20T19:22:22.240Z,99.90
2018-08-20T19:24:50.686Z,99.90
2018-08-20T19:27:19.191Z,99.90
2018-08-20T19:29:47.620Z,99.90
2018-08-20T19:32:16.050Z,99.90
2018-08-20T19:34:44.438Z,99.90
2018-08-20T19:37:12.938Z,99.90
2018-08-20T19:39:41.548Z,99.90
2018-08-20T19:42:13.856Z,99.90
2018-08-20T19:44:42.664Z,99.90
2018-08-20T19:47:11.072Z,99.90
2018-08-20T19:49:39.527Z,99.90
2018-08-20T19:52:07.981Z,99.90
2018-08-20T19:54:36.399Z,99.90
2018-08-20T19:57:05.050Z,99.90
2018-08-20T19:59:37.676Z,99.90
2018-08-20T20:02:10.378Z,99.90
2018-08-20T20:04:38.825Z,99.90
2018-08-20T20:07:07.423Z,99.90
2018-08-20T20:09:36.516Z,99.90
2018-08-20T20:12:05.173Z,99.90
2018-08-20T20:14:38.859Z,99.90
2018-08-20T20:17:07.267Z,99.90
2018-08-20T20:19:35.734Z,99.90
2018-08-20T20:22:04.157Z,99.90
2018-08-20T20:24:32.566Z,99.90
2018-08-20T20:27:00.957Z,99.90
2018-08-20T20:29:29.350Z,99.90
2018-08-20T20:31:57.712Z,99.90
2018-08-20T20:34:26.071Z,99.90
2018-08-20T20:36:54.483Z,99.90
2018-08-20T20:39:22.930Z,99.90
2018-08-20T20:41:51.303Z,99.90
2018-08-20T20:44:20.229Z,99.90
2018-08-20T20:46:48.611Z,99.90
2018-08-20T20:49:16.976Z,99.90
2018-08-20T20:51:45.487Z,99.90
2018-08-20T20:54:13.873Z,99.90
2018-08-20T20:56:42.339Z,99.90
2018-08-20T20:59:10.776Z,99.90
2018-08-20T21:01:39.209Z,99.90
2018-08-20T21:04:08.676Z,99.90
2018-08-20T21:06:39.980Z,99.90
2018-08-20T21:09:12.373Z,99.90
2018-08-20T21:11:41.262Z,99.90
2018-08-20T21:14:09.730Z,99.90
2018-08-20T21:16:38.156Z,99.90
2018-08-20T21:19:07.842Z,99.90
2018-08-20T21:21:36.306Z,99.90
2018-08-20T21:24:06.249Z,99.90
2018-08-20T21:26:34.763Z,99.90
2018-08-20T21:29:03.174Z,99.90
2018-08-20T21:31:37.101Z,99.90
2018-08-20T21:34:05.469Z,99.90
2018-08-20T21:36:33.818Z,99.90
2018-08-20T21:39:02.749Z,99.90
2018-08-20T21:41:31.090Z,99.90
2018-08-20T21:43:59.434Z,99.90
2018-08-20T21:46:27.826Z,99.90
2018-08-20T21:48:56.234Z,99.90
2018-08-20T21:51:30.131Z,99.90
2018-08-20T21:53:58.858Z,99.90
2018-08-20T21:56:38.605Z,99.90
2018-08-20T21:59:07.129Z,99.90
2018-08-20T22:01:35.510Z,99.90
2018-08-20T22:04:08.120Z,99.90
2018-08-20T22:06:37.104Z,99.90
2018-08-20T22:09:06.377Z,99.90
2018-08-20T22:11:35.303Z,99.90
2018-08-20T22:14:03.734Z,99.90
2018-08-20T22:16:32.194Z,99.90
2018-08-20T22:19:00.622Z,99.90
2018-08-20T22:21:28.958Z,99.90
2018-08-20T22:23:58.238Z,99.90
2018-08-20T22:26:26.814Z,99.90
2018-08-20T22:28:55.276Z,99.90
2018-08-20T22:31:24.223Z,99.90
2018-08-20T22:33:58.724Z,99.90
2018-08-20T22:36:28.326Z,99.90
2018-08-20T22:38:59.408Z,99.90
2018-08-20T22:41:29.690Z,99.90
2018-08-20T22:43:58.063Z,99.90
2018-08-20T22:46:26.747Z,99.90
2018-08-20T22:48:57.855Z,99.90
2018-08-20T22:51:27.476Z,99.90
2018-08-20T22:54:00.627Z,99.90
2018-08-20T22:56:33.841Z,99.90
2018-08-20T22:59:06.061Z,99.90
2018-08-20T23:01:34.523Z,99.90
2018-08-20T23:04:02.944Z,99.90
2018-08-20T23:06:31.423Z,99.90
2018-08-20T23:09:04.256Z,99.90
2018-08-20T23:11:41.164Z,99.90
2018-08-20T23:14:11.148Z,99.90
2018-08-20T23:16:39.789Z,99.90
2018-08-20T23:19:08.841Z,99.90
2018-08-20T23:21:40.861Z,99.90
2018-08-20T23:24:09.841Z,99.90
2018-08-20T23:26:38.202Z,99.90
2018-08-20T23:29:06.610Z,99.90
2018-08-20T23:31:34.989Z,99.90
2018-08-20T23:34:03.418Z,99.90
2018-08-20T23:39:08.760Z,99.90
2018-08-20T23:41:37.253Z,99.90
2018-08-20T23:44:05.725Z,99.90
2018-08-20T23:46:38.503Z,99.90
2018-08-20T23:49:06.889Z,99.90
2018-08-20T23:51:35.344Z,99.90
2018-08-20T23:54:03.754Z,99.90
2018-08-20T23:56:32.198Z,99.90
2018-08-20T23:59:00.694Z,99.90
